sensor_id;sensor_type;location;lat;lon;timestamp;P1;durP1;ratioP1;P2;durP2;ratioP2
29908;SDS011;36247;51.952;6.146;2022-07-23T00:00:33;5.93;;;5.07;;
29908;SDS011;36247;51.952;6.146;2022-07-23T00:02:59;6.22;;;5.10;;
29908;SDS011;36247;51.952;6.146;2022-07-23T00:05:25;7.43;;;5.05;;
29908;SDS011;36247;51.952;6.146;2022-07-23T00:07:50;6.60;;;5.22;;
29908;SDS011;36247;51.952;6.146;2022-07-23T00:10:16;6.75;;;4.57;;
29908;SDS011;36247;51.952;6.146;2022-07-23T00:12:42;7.50;;;4.72;;
29908;SDS011;36247;51.952;6.146;2022-07-23T00:15:09;7.78;;;5.20;;
29908;SDS011;36247;51.952;6.146;2022-07-23T00:17:35;7.55;;;4.75;;
29908;SDS011;36247;51.952;6.146;2022-07-23T00:20:01;6.93;;;5.03;;
29908;SDS011;36247;51.952;6.146;2022-07-23T00:22:27;5.68;;;5.05;;
29908;SDS011;36247;51.952;6.146;2022-07-23T00:24:54;8.02;;;4.63;;
29908;SDS011;36247;51.952;6.146;2022-07-23T00:27:20;6.38;;;4.70;;
29908;SDS011;36247;51.952;6.146;2022-07-23T00:29:46;8.05;;;4.80;;
29908;SDS011;36247;51.952;6.146;2022-07-23T00:32:11;8.90;;;5.30;;
29908;SDS011;36247;51.952;6.146;2022-07-23T00:34:36;7.70;;;4.90;;
29908;SDS011;36247;51.952;6.146;2022-07-23T00:37:02;10.75;;;5.20;;
29908;SDS011;36247;51.952;6.146;2022-07-23T00:39:27;10.25;;;5.10;;
29908;SDS011;36247;51.952;6.146;2022-07-23T00:41:53;7.50;;;4.88;;
29908;SDS011;36247;51.952;6.146;2022-07-23T00:44:20;13.85;;;6.20;;
29908;SDS011;36247;51.952;6.146;2022-07-23T00:46:51;6.28;;;5.13;;
29908;SDS011;36247;51.952;6.146;2022-07-23T00:49:25;7.55;;;5.25;;
29908;SDS011;36247;51.952;6.146;2022-07-23T00:51:52;9.68;;;5.57;;
29908;SDS011;36247;51.952;6.146;2022-07-23T00:54:18;9.07;;;4.93;;
29908;SDS011;36247;51.952;6.146;2022-07-23T00:56:46;6.60;;;4.70;;
29908;SDS011;36247;51.952;6.146;2022-07-23T00:59:12;7.07;;;5.13;;
29908;SDS011;36247;51.952;6.146;2022-07-23T01:01:39;8.82;;;5.45;;
29908;SDS011;36247;51.952;6.146;2022-07-23T01:04:05;10.50;;;5.95;;
29908;SDS011;36247;51.952;6.146;2022-07-23T01:06:35;9.93;;;5.70;;
29908;SDS011;36247;51.952;6.146;2022-07-23T01:09:03;11.13;;;5.75;;
29908;SDS011;36247;51.952;6.146;2022-07-23T01:11:29;6.65;;;6.03;;
29908;SDS011;36247;51.952;6.146;2022-07-23T01:13:56;7.15;;;6.43;;
29908;SDS011;36247;51.952;6.146;2022-07-23T01:16:22;10.25;;;6.72;;
29908;SDS011;36247;51.952;6.146;2022-07-23T01:18:47;7.10;;;5.60;;
29908;SDS011;36247;51.952;6.146;2022-07-23T01:21:13;6.90;;;6.20;;
29908;SDS011;36247;51.952;6.146;2022-07-23T01:23:39;9.80;;;6.72;;
29908;SDS011;36247;51.952;6.146;2022-07-23T01:26:05;8.90;;;6.22;;
29908;SDS011;36247;51.952;6.146;2022-07-23T01:28:31;8.25;;;6.57;;
29908;SDS011;36247;51.952;6.146;2022-07-23T01:30:57;10.25;;;6.75;;
29908;SDS011;36247;51.952;6.146;2022-07-23T01:33:23;9.80;;;7.03;;
29908;SDS011;36247;51.952;6.146;2022-07-23T01:35:48;14.05;;;6.93;;
29908;SDS011;36247;51.952;6.146;2022-07-23T01:38:19;9.43;;;6.63;;
29908;SDS011;36247;51.952;6.146;2022-07-23T01:40:44;8.00;;;6.30;;
29908;SDS011;36247;51.952;6.146;2022-07-23T01:43:10;7.65;;;6.63;;
29908;SDS011;36247;51.952;6.146;2022-07-23T01:45:36;7.70;;;6.90;;
29908;SDS011;36247;51.952;6.146;2022-07-23T01:48:02;8.38;;;6.75;;
29908;SDS011;36247;51.952;6.146;2022-07-23T01:50:29;8.50;;;7.28;;
29908;SDS011;36247;51.952;6.146;2022-07-23T01:53:14;7.13;;;6.40;;
29908;SDS011;36247;51.952;6.146;2022-07-23T01:55:39;12.40;;;7.53;;
29908;SDS011;36247;51.952;6.146;2022-07-23T01:58:06;9.57;;;7.72;;
29908;SDS011;36247;51.952;6.146;2022-07-23T02:00:31;8.02;;;7.10;;
29908;SDS011;36247;51.952;6.146;2022-07-23T02:02:57;9.32;;;7.18;;
29908;SDS011;36247;51.952;6.146;2022-07-23T02:05:26;9.45;;;6.90;;
29908;SDS011;36247;51.952;6.146;2022-07-23T02:07:58;9.95;;;7.43;;
29908;SDS011;36247;51.952;6.146;2022-07-23T02:10:24;8.77;;;6.57;;
29908;SDS011;36247;51.952;6.146;2022-07-23T02:12:49;9.77;;;7.55;;
29908;SDS011;36247;51.952;6.146;2022-07-23T02:15:15;9.57;;;7.20;;
29908;SDS011;36247;51.952;6.146;2022-07-23T02:17:41;10.15;;;7.82;;
29908;SDS011;36247;51.952;6.146;2022-07-23T02:20:07;12.18;;;8.38;;
29908;SDS011;36247;51.952;6.146;2022-07-23T02:22:34;15.63;;;8.65;;
29908;SDS011;36247;51.952;6.146;2022-07-23T02:25:00;11.63;;;7.80;;
29908;SDS011;36247;51.952;6.146;2022-07-23T02:27:25;9.82;;;8.02;;
29908;SDS011;36247;51.952;6.146;2022-07-23T02:29:52;12.98;;;8.65;;
29908;SDS011;36247;51.952;6.146;2022-07-23T02:32:17;10.10;;;6.95;;
29908;SDS011;36247;51.952;6.146;2022-07-23T02:34:43;8.40;;;7.30;;
29908;SDS011;36247;51.952;6.146;2022-07-23T02:37:09;7.32;;;6.63;;
29908;SDS011;36247;51.952;6.146;2022-07-23T02:39:35;11.75;;;7.78;;
29908;SDS011;36247;51.952;6.146;2022-07-23T02:42:02;11.05;;;7.97;;
29908;SDS011;36247;51.952;6.146;2022-07-23T02:44:34;10.55;;;8.40;;
29908;SDS011;36247;51.952;6.146;2022-07-23T02:47:00;11.23;;;7.50;;
29908;SDS011;36247;51.952;6.146;2022-07-23T02:49:26;9.68;;;6.80;;
29908;SDS011;36247;51.952;6.146;2022-07-23T02:51:52;11.07;;;6.78;;
29908;SDS011;36247;51.952;6.146;2022-07-23T02:54:17;7.22;;;5.85;;
29908;SDS011;36247;51.952;6.146;2022-07-23T02:56:43;6.65;;;4.90;;
29908;SDS011;36247;51.952;6.146;2022-07-23T02:59:10;9.23;;;5.78;;
29908;SDS011;36247;51.952;6.146;2022-07-23T03:01:36;6.72;;;5.63;;
29908;SDS011;36247;51.952;6.146;2022-07-23T03:04:02;9.90;;;6.22;;
29908;SDS011;36247;51.952;6.146;2022-07-23T03:06:27;9.15;;;6.18;;
29908;SDS011;36247;51.952;6.146;2022-07-23T03:08:53;9.88;;;7.22;;
29908;SDS011;36247;51.952;6.146;2022-07-23T03:11:19;13.35;;;7.38;;
29908;SDS011;36247;51.952;6.146;2022-07-23T03:13:45;10.38;;;7.90;;
29908;SDS011;36247;51.952;6.146;2022-07-23T03:16:10;11.63;;;7.25;;
29908;SDS011;36247;51.952;6.146;2022-07-23T03:18:36;9.02;;;7.43;;
29908;SDS011;36247;51.952;6.146;2022-07-23T03:21:03;8.73;;;6.85;;
29908;SDS011;36247;51.952;6.146;2022-07-23T03:23:28;10.00;;;6.63;;
29908;SDS011;36247;51.952;6.146;2022-07-23T03:25:54;5.97;;;5.38;;
29908;SDS011;36247;51.952;6.146;2022-07-23T03:28:20;7.18;;;6.00;;
29908;SDS011;36247;51.952;6.146;2022-07-23T03:30:46;6.05;;;5.32;;
29908;SDS011;36247;51.952;6.146;2022-07-23T03:33:14;5.25;;;4.75;;
29908;SDS011;36247;51.952;6.146;2022-07-23T03:35:42;5.18;;;3.90;;
29908;SDS011;36247;51.952;6.146;2022-07-23T03:38:16;4.15;;;3.75;;
29908;SDS011;36247;51.952;6.146;2022-07-23T03:40:42;2.85;;;2.55;;
29908;SDS011;36247;51.952;6.146;2022-07-23T03:43:09;3.20;;;2.90;;
29908;SDS011;36247;51.952;6.146;2022-07-23T03:45:34;6.55;;;4.53;;
29908;SDS011;36247;51.952;6.146;2022-07-23T03:48:00;6.07;;;3.40;;
29908;SDS011;36247;51.952;6.146;2022-07-23T03:50:27;6.13;;;4.55;;
29908;SDS011;36247;51.952;6.146;2022-07-23T03:52:53;7.05;;;5.38;;
29908;SDS011;36247;51.952;6.146;2022-07-23T03:55:19;7.53;;;6.72;;
29908;SDS011;36247;51.952;6.146;2022-07-23T03:57:45;7.10;;;4.90;;
29908;SDS011;36247;51.952;6.146;2022-07-23T04:00:10;7.25;;;6.10;;
29908;SDS011;36247;51.952;6.146;2022-07-23T04:02:42;6.38;;;4.75;;
29908;SDS011;36247;51.952;6.146;2022-07-23T04:05:10;5.95;;;5.35;;
29908;SDS011;36247;51.952;6.146;2022-07-23T04:07:36;7.05;;;6.35;;
29908;SDS011;36247;51.952;6.146;2022-07-23T04:10:02;9.90;;;6.88;;
29908;SDS011;36247;51.952;6.146;2022-07-23T04:12:28;9.50;;;7.68;;
29908;SDS011;36247;51.952;6.146;2022-07-23T04:14:54;11.60;;;7.55;;
29908;SDS011;36247;51.952;6.146;2022-07-23T04:17:20;10.45;;;8.40;;
29908;SDS011;36247;51.952;6.146;2022-07-23T04:19:46;9.93;;;7.28;;
29908;SDS011;36247;51.952;6.146;2022-07-23T04:22:14;7.57;;;6.53;;
29908;SDS011;36247;51.952;6.146;2022-07-23T04:24:41;7.03;;;5.97;;
29908;SDS011;36247;51.952;6.146;2022-07-23T04:27:08;10.20;;;6.53;;
29908;SDS011;36247;51.952;6.146;2022-07-23T04:29:35;6.88;;;5.63;;
29908;SDS011;36247;51.952;6.146;2022-07-23T04:32:01;9.27;;;6.45;;
29908;SDS011;36247;51.952;6.146;2022-07-23T04:34:26;10.80;;;6.43;;
29908;SDS011;36247;51.952;6.146;2022-07-23T04:36:52;13.10;;;8.40;;
29908;SDS011;36247;51.952;6.146;2022-07-23T04:39:19;8.50;;;7.18;;
29908;SDS011;36247;51.952;6.146;2022-07-23T04:41:45;12.52;;;8.52;;
29908;SDS011;36247;51.952;6.146;2022-07-23T04:44:11;10.98;;;8.18;;
29908;SDS011;36247;51.952;6.146;2022-07-23T04:46:37;10.77;;;7.75;;
29908;SDS011;36247;51.952;6.146;2022-07-23T04:49:02;12.60;;;7.68;;
29908;SDS011;36247;51.952;6.146;2022-07-23T04:51:28;9.82;;;7.95;;
29908;SDS011;36247;51.952;6.146;2022-07-23T04:53:55;10.35;;;8.10;;
29908;SDS011;36247;51.952;6.146;2022-07-23T04:56:21;10.48;;;7.82;;
29908;SDS011;36247;51.952;6.146;2022-07-23T04:58:47;11.70;;;8.77;;
29908;SDS011;36247;51.952;6.146;2022-07-23T05:01:13;11.32;;;8.70;;
29908;SDS011;36247;51.952;6.146;2022-07-23T05:03:38;21.17;;;8.55;;
29908;SDS011;36247;51.952;6.146;2022-07-23T05:06:04;11.63;;;8.00;;
29908;SDS011;36247;51.952;6.146;2022-07-23T05:08:30;15.73;;;8.77;;
29908;SDS011;36247;51.952;6.146;2022-07-23T05:10:58;15.23;;;8.05;;
29908;SDS011;36247;51.952;6.146;2022-07-23T05:13:24;10.30;;;7.75;;
29908;SDS011;36247;51.952;6.146;2022-07-23T05:15:51;11.88;;;7.43;;
29908;SDS011;36247;51.952;6.146;2022-07-23T05:18:17;12.25;;;8.32;;
29908;SDS011;36247;51.952;6.146;2022-07-23T05:20:43;10.27;;;7.85;;
29908;SDS011;36247;51.952;6.146;2022-07-23T05:23:13;9.82;;;7.95;;
29908;SDS011;36247;51.952;6.146;2022-07-23T05:25:39;10.95;;;8.20;;
29908;SDS011;36247;51.952;6.146;2022-07-23T05:28:05;10.05;;;8.43;;
29908;SDS011;36247;51.952;6.146;2022-07-23T05:30:31;10.57;;;7.93;;
29908;SDS011;36247;51.952;6.146;2022-07-23T05:33:00;11.00;;;7.63;;
29908;SDS011;36247;51.952;6.146;2022-07-23T05:35:26;10.60;;;8.20;;
29908;SDS011;36247;51.952;6.146;2022-07-23T05:38:12;14.90;;;8.70;;
29908;SDS011;36247;51.952;6.146;2022-07-23T05:40:38;12.50;;;8.77;;
29908;SDS011;36247;51.952;6.146;2022-07-23T05:43:04;9.65;;;7.75;;
29908;SDS011;36247;51.952;6.146;2022-07-23T05:45:29;12.57;;;7.45;;
29908;SDS011;36247;51.952;6.146;2022-07-23T05:47:56;13.70;;;9.38;;
29908;SDS011;36247;51.952;6.146;2022-07-23T05:50:30;10.35;;;7.40;;
29908;SDS011;36247;51.952;6.146;2022-07-23T05:55:55;10.48;;;6.93;;
29908;SDS011;36247;51.952;6.146;2022-07-23T05:58:21;11.18;;;7.75;;
29908;SDS011;36247;51.952;6.146;2022-07-23T06:00:47;10.75;;;7.50;;
29908;SDS011;36247;51.952;6.146;2022-07-23T06:03:12;11.93;;;7.43;;
29908;SDS011;36247;51.952;6.146;2022-07-23T06:05:39;13.65;;;7.57;;
29908;SDS011;36247;51.952;6.146;2022-07-23T06:08:05;10.63;;;6.80;;
29908;SDS011;36247;51.952;6.146;2022-07-23T06:10:30;10.15;;;6.50;;
29908;SDS011;36247;51.952;6.146;2022-07-23T06:12:56;13.38;;;7.20;;
29908;SDS011;36247;51.952;6.146;2022-07-23T06:15:23;10.00;;;6.32;;
29908;SDS011;36247;51.952;6.146;2022-07-23T06:17:49;10.63;;;6.65;;
29908;SDS011;36247;51.952;6.146;2022-07-23T06:20:15;8.98;;;6.10;;
29908;SDS011;36247;51.952;6.146;2022-07-23T06:22:41;12.20;;;6.38;;
29908;SDS011;36247;51.952;6.146;2022-07-23T06:25:07;13.07;;;7.13;;
29908;SDS011;36247;51.952;6.146;2022-07-23T06:27:34;17.98;;;6.53;;
29908;SDS011;36247;51.952;6.146;2022-07-23T06:30:00;8.32;;;6.28;;
29908;SDS011;36247;51.952;6.146;2022-07-23T06:32:25;9.20;;;6.80;;
29908;SDS011;36247;51.952;6.146;2022-07-23T06:34:52;10.80;;;7.38;;
29908;SDS011;36247;51.952;6.146;2022-07-23T06:37:20;8.65;;;7.13;;
29908;SDS011;36247;51.952;6.146;2022-07-23T06:39:45;10.65;;;7.20;;
29908;SDS011;36247;51.952;6.146;2022-07-23T06:42:11;7.47;;;6.65;;
29908;SDS011;36247;51.952;6.146;2022-07-23T06:44:42;11.55;;;7.15;;
29908;SDS011;36247;51.952;6.146;2022-07-23T06:47:10;9.68;;;7.55;;
29908;SDS011;36247;51.952;6.146;2022-07-23T06:49:36;9.35;;;6.80;;
29908;SDS011;36247;51.952;6.146;2022-07-23T06:52:01;8.98;;;6.20;;
29908;SDS011;36247;51.952;6.146;2022-07-23T06:54:27;7.20;;;5.80;;
29908;SDS011;36247;51.952;6.146;2022-07-23T06:56:52;9.75;;;5.88;;
29908;SDS011;36247;51.952;6.146;2022-07-23T06:59:18;10.02;;;6.07;;
29908;SDS011;36247;51.952;6.146;2022-07-23T07:01:44;10.65;;;5.88;;
29908;SDS011;36247;51.952;6.146;2022-07-23T07:04:13;9.90;;;5.25;;
29908;SDS011;36247;51.952;6.146;2022-07-23T07:06:40;6.35;;;5.75;;
29908;SDS011;36247;51.952;6.146;2022-07-23T07:09:05;8.73;;;6.07;;
29908;SDS011;36247;51.952;6.146;2022-07-23T07:11:31;6.18;;;5.13;;
29908;SDS011;36247;51.952;6.146;2022-07-23T07:13:57;7.40;;;4.70;;
29908;SDS011;36247;51.952;6.146;2022-07-23T07:16:23;6.32;;;4.82;;
29908;SDS011;36247;51.952;6.146;2022-07-23T07:18:49;9.80;;;4.90;;
29908;SDS011;36247;51.952;6.146;2022-07-23T07:21:15;8.60;;;5.25;;
29908;SDS011;36247;51.952;6.146;2022-07-23T07:23:41;5.55;;;4.35;;
29908;SDS011;36247;51.952;6.146;2022-07-23T07:26:07;6.60;;;4.85;;
29908;SDS011;36247;51.952;6.146;2022-07-23T07:28:32;11.15;;;5.05;;
29908;SDS011;36247;51.952;6.146;2022-07-23T07:30:58;7.72;;;4.60;;
29908;SDS011;36247;51.952;6.146;2022-07-23T07:33:25;5.00;;;3.63;;
29908;SDS011;36247;51.952;6.146;2022-07-23T07:35:51;7.20;;;4.07;;
29908;SDS011;36247;51.952;6.146;2022-07-23T07:38:18;8.02;;;3.85;;
29908;SDS011;36247;51.952;6.146;2022-07-23T07:40:44;6.07;;;4.60;;
29908;SDS011;36247;51.952;6.146;2022-07-23T07:43:11;6.40;;;4.43;;
29908;SDS011;36247;51.952;6.146;2022-07-23T07:45:36;5.95;;;4.00;;
29908;SDS011;36247;51.952;6.146;2022-07-23T07:48:02;11.07;;;5.00;;
29908;SDS011;36247;51.952;6.146;2022-07-23T07:50:28;10.80;;;4.88;;
29908;SDS011;36247;51.952;6.146;2022-07-23T07:52:54;6.47;;;4.20;;
29908;SDS011;36247;51.952;6.146;2022-07-23T07:55:19;5.70;;;5.00;;
29908;SDS011;36247;51.952;6.146;2022-07-23T07:57:45;5.38;;;4.55;;
29908;SDS011;36247;51.952;6.146;2022-07-23T08:00:10;16.08;;;5.55;;
29908;SDS011;36247;51.952;6.146;2022-07-23T08:02:43;11.77;;;4.97;;
29908;SDS011;36247;51.952;6.146;2022-07-23T08:05:12;6.15;;;4.30;;
29908;SDS011;36247;51.952;6.146;2022-07-23T08:07:39;5.65;;;4.65;;
29908;SDS011;36247;51.952;6.146;2022-07-23T08:10:08;5.00;;;3.85;;
29908;SDS011;36247;51.952;6.146;2022-07-23T08:12:42;7.15;;;4.65;;
29908;SDS011;36247;51.952;6.146;2022-07-23T08:15:11;7.85;;;3.95;;
29908;SDS011;36247;51.952;6.146;2022-07-23T08:17:37;5.78;;;4.65;;
29908;SDS011;36247;51.952;6.146;2022-07-23T08:20:05;6.57;;;5.20;;
29908;SDS011;36247;51.952;6.146;2022-07-23T08:22:45;5.72;;;4.20;;
29908;SDS011;36247;51.952;6.146;2022-07-23T08:25:13;10.05;;;4.45;;
29908;SDS011;36247;51.952;6.146;2022-07-23T08:27:40;4.57;;;3.35;;
29908;SDS011;36247;51.952;6.146;2022-07-23T08:30:06;6.60;;;3.90;;
29908;SDS011;36247;51.952;6.146;2022-07-23T08:32:32;5.13;;;3.38;;
29908;SDS011;36247;51.952;6.146;2022-07-23T08:34:58;3.92;;;3.03;;
29908;SDS011;36247;51.952;6.146;2022-07-23T08:37:23;5.25;;;3.05;;
29908;SDS011;36247;51.952;6.146;2022-07-23T08:39:49;7.18;;;3.10;;
29908;SDS011;36247;51.952;6.146;2022-07-23T08:42:14;4.07;;;3.33;;
29908;SDS011;36247;51.952;6.146;2022-07-23T08:44:42;6.63;;;3.40;;
29908;SDS011;36247;51.952;6.146;2022-07-23T08:47:12;4.45;;;3.53;;
29908;SDS011;36247;51.952;6.146;2022-07-23T08:49:40;6.57;;;3.00;;
29908;SDS011;36247;51.952;6.146;2022-07-23T08:52:06;6.75;;;3.13;;
29908;SDS011;36247;51.952;6.146;2022-07-23T08:54:34;6.88;;;3.30;;
29908;SDS011;36247;51.952;6.146;2022-07-23T08:56:59;6.70;;;3.63;;
29908;SDS011;36247;51.952;6.146;2022-07-23T08:59:25;5.03;;;2.92;;
29908;SDS011;36247;51.952;6.146;2022-07-23T09:01:53;4.28;;;2.88;;
29908;SDS011;36247;51.952;6.146;2022-07-23T09:04:18;4.78;;;3.22;;
29908;SDS011;36247;51.952;6.146;2022-07-23T09:06:44;5.85;;;3.45;;
29908;SDS011;36247;51.952;6.146;2022-07-23T09:09:20;5.05;;;3.13;;
29908;SDS011;36247;51.952;6.146;2022-07-23T09:11:46;8.35;;;3.20;;
29908;SDS011;36247;51.952;6.146;2022-07-23T09:14:13;4.22;;;2.78;;
29908;SDS011;36247;51.952;6.146;2022-07-23T09:16:39;2.53;;;2.33;;
29908;SDS011;36247;51.952;6.146;2022-07-23T09:19:05;3.38;;;2.80;;
29908;SDS011;36247;51.952;6.146;2022-07-23T09:21:36;6.65;;;2.95;;
29908;SDS011;36247;51.952;6.146;2022-07-23T09:24:08;5.72;;;2.97;;
29908;SDS011;36247;51.952;6.146;2022-07-23T09:26:45;7.22;;;3.15;;
29908;SDS011;36247;51.952;6.146;2022-07-23T09:34:22;5.68;;;2.72;;
29908;SDS011;36247;51.952;6.146;2022-07-23T09:36:49;6.63;;;3.97;;
29908;SDS011;36247;51.952;6.146;2022-07-23T09:39:16;3.80;;;3.03;;
29908;SDS011;36247;51.952;6.146;2022-07-23T09:41:51;5.75;;;3.03;;
29908;SDS011;36247;51.952;6.146;2022-07-23T09:44:18;4.75;;;2.80;;
29908;SDS011;36247;51.952;6.146;2022-07-23T09:46:46;4.10;;;2.60;;
29908;SDS011;36247;51.952;6.146;2022-07-23T09:49:18;2.90;;;2.60;;
29908;SDS011;36247;51.952;6.146;2022-07-23T09:51:50;5.05;;;3.10;;
29908;SDS011;36247;51.952;6.146;2022-07-23T09:54:27;5.53;;;2.90;;
29908;SDS011;36247;51.952;6.146;2022-07-23T09:56:56;5.85;;;2.60;;
29908;SDS011;36247;51.952;6.146;2022-07-23T09:59:25;5.95;;;3.15;;
29908;SDS011;36247;51.952;6.146;2022-07-23T10:01:56;3.50;;;2.50;;
29908;SDS011;36247;51.952;6.146;2022-07-23T10:04:26;4.38;;;3.03;;
29908;SDS011;36247;51.952;6.146;2022-07-23T10:07:18;3.67;;;2.53;;
29908;SDS011;36247;51.952;6.146;2022-07-23T10:10:13;4.03;;;2.85;;
29908;SDS011;36247;51.952;6.146;2022-07-23T10:12:59;3.67;;;2.90;;
29908;SDS011;36247;51.952;6.146;2022-07-23T10:15:35;4.90;;;3.35;;
29908;SDS011;36247;51.952;6.146;2022-07-23T10:18:01;5.07;;;3.00;;
29908;SDS011;36247;51.952;6.146;2022-07-23T10:20:28;3.50;;;2.80;;
29908;SDS011;36247;51.952;6.146;2022-07-23T10:23:00;4.00;;;2.88;;
29908;SDS011;36247;51.952;6.146;2022-07-23T10:36:40;4.60;;;2.60;;
29908;SDS011;36247;51.952;6.146;2022-07-23T10:41:44;3.65;;;3.05;;
29908;SDS011;36247;51.952;6.146;2022-07-23T10:46:58;4.40;;;2.58;;
29908;SDS011;36247;51.952;6.146;2022-07-23T10:49:44;3.78;;;2.60;;
29908;SDS011;36247;51.952;6.146;2022-07-23T10:57:28;4.78;;;2.40;;
29908;SDS011;36247;51.952;6.146;2022-07-23T11:02:26;2.47;;;2.27;;
29908;SDS011;36247;51.952;6.146;2022-07-23T11:04:56;2.97;;;2.58;;
29908;SDS011;36247;51.952;6.146;2022-07-23T11:07:26;3.50;;;2.47;;
29908;SDS011;36247;51.952;6.146;2022-07-23T11:09:52;5.45;;;2.88;;
29908;SDS011;36247;51.952;6.146;2022-07-23T11:17:26;3.55;;;2.40;;
29908;SDS011;36247;51.952;6.146;2022-07-23T11:25:10;3.75;;;2.55;;
29908;SDS011;36247;51.952;6.146;2022-07-23T11:27:39;3.88;;;2.40;;
29908;SDS011;36247;51.952;6.146;2022-07-23T11:30:48;4.18;;;2.22;;
29908;SDS011;36247;51.952;6.146;2022-07-23T11:35:35;4.75;;;2.78;;
29908;SDS011;36247;51.952;6.146;2022-07-23T11:38:22;3.35;;;2.65;;
29908;SDS011;36247;51.952;6.146;2022-07-23T11:40:49;4.93;;;2.58;;
29908;SDS011;36247;51.952;6.146;2022-07-23T11:43:18;2.65;;;2.45;;
29908;SDS011;36247;51.952;6.146;2022-07-23T11:45:45;2.85;;;2.42;;
29908;SDS011;36247;51.952;6.146;2022-07-23T11:48:20;2.15;;;2.05;;
29908;SDS011;36247;51.952;6.146;2022-07-23T11:50:47;2.63;;;2.22;;
29908;SDS011;36247;51.952;6.146;2022-07-23T11:53:13;7.20;;;3.20;;
29908;SDS011;36247;51.952;6.146;2022-07-23T11:55:48;3.80;;;2.58;;
29908;SDS011;36247;51.952;6.146;2022-07-23T11:58:13;5.32;;;2.80;;
29908;SDS011;36247;51.952;6.146;2022-07-23T12:00:40;3.67;;;2.90;;
29908;SDS011;36247;51.952;6.146;2022-07-23T12:03:06;2.80;;;2.40;;
29908;SDS011;36247;51.952;6.146;2022-07-23T12:05:33;3.70;;;2.50;;
29908;SDS011;36247;51.952;6.146;2022-07-23T12:08:02;3.20;;;2.45;;
29908;SDS011;36247;51.952;6.146;2022-07-23T12:10:33;4.93;;;2.58;;
29908;SDS011;36247;51.952;6.146;2022-07-23T12:13:02;5.05;;;2.47;;
29908;SDS011;36247;51.952;6.146;2022-07-23T12:18:10;2.50;;;2.30;;
29908;SDS011;36247;51.952;6.146;2022-07-23T12:20:39;4.40;;;2.97;;
29908;SDS011;36247;51.952;6.146;2022-07-23T12:23:07;4.10;;;2.63;;
29908;SDS011;36247;51.952;6.146;2022-07-23T12:25:36;3.58;;;2.75;;
29908;SDS011;36247;51.952;6.146;2022-07-23T12:28:05;3.22;;;2.80;;
29908;SDS011;36247;51.952;6.146;2022-07-23T12:30:37;4.97;;;2.47;;
29908;SDS011;36247;51.952;6.146;2022-07-23T12:33:04;3.10;;;2.80;;
29908;SDS011;36247;51.952;6.146;2022-07-23T12:35:34;4.10;;;2.63;;
29908;SDS011;36247;51.952;6.146;2022-07-23T12:38:01;3.35;;;2.70;;
29908;SDS011;36247;51.952;6.146;2022-07-23T12:40:46;3.05;;;2.50;;
29908;SDS011;36247;51.952;6.146;2022-07-23T12:43:29;3.47;;;2.50;;
29908;SDS011;36247;51.952;6.146;2022-07-23T12:46:12;2.78;;;2.58;;
29908;SDS011;36247;51.952;6.146;2022-07-23T12:51:26;2.58;;;2.28;;
29908;SDS011;36247;51.952;6.146;2022-07-23T12:56:22;5.00;;;2.90;;
29908;SDS011;36247;51.952;6.146;2022-07-23T12:58:57;6.78;;;2.80;;
29908;SDS011;36247;51.952;6.146;2022-07-23T13:01:34;2.60;;;2.40;;
29908;SDS011;36247;51.952;6.146;2022-07-23T13:06:29;3.28;;;2.97;;
29908;SDS011;36247;51.952;6.146;2022-07-23T13:08:56;3.28;;;3.00;;
29908;SDS011;36247;51.952;6.146;2022-07-23T13:11:22;6.00;;;3.25;;
29908;SDS011;36247;51.952;6.146;2022-07-23T13:13:48;3.00;;;2.80;;
29908;SDS011;36247;51.952;6.146;2022-07-23T13:16:14;3.30;;;2.75;;
29908;SDS011;36247;51.952;6.146;2022-07-23T13:18:40;3.92;;;3.05;;
29908;SDS011;36247;51.952;6.146;2022-07-23T13:21:06;8.27;;;2.67;;
29908;SDS011;36247;51.952;6.146;2022-07-23T13:23:31;4.38;;;2.95;;
29908;SDS011;36247;51.952;6.146;2022-07-23T13:25:57;3.25;;;2.65;;
29908;SDS011;36247;51.952;6.146;2022-07-23T13:28:22;5.00;;;2.63;;
29908;SDS011;36247;51.952;6.146;2022-07-23T13:30:48;4.10;;;3.13;;
29908;SDS011;36247;51.952;6.146;2022-07-23T13:33:19;3.88;;;3.35;;
29908;SDS011;36247;51.952;6.146;2022-07-23T13:35:46;5.35;;;3.38;;
29908;SDS011;36247;51.952;6.146;2022-07-23T13:38:12;5.00;;;3.38;;
29908;SDS011;36247;51.952;6.146;2022-07-23T13:40:38;4.85;;;2.80;;
29908;SDS011;36247;51.952;6.146;2022-07-23T13:43:09;5.40;;;3.45;;
29908;SDS011;36247;51.952;6.146;2022-07-23T13:45:37;4.00;;;3.20;;
29908;SDS011;36247;51.952;6.146;2022-07-23T13:48:05;3.72;;;3.30;;
29908;SDS011;36247;51.952;6.146;2022-07-23T13:50:31;3.40;;;2.70;;
29908;SDS011;36247;51.952;6.146;2022-07-23T13:52:59;3.58;;;3.28;;
29908;SDS011;36247;51.952;6.146;2022-07-23T13:55:26;4.00;;;2.92;;
29908;SDS011;36247;51.952;6.146;2022-07-23T13:57:51;3.97;;;2.58;;
29908;SDS011;36247;51.952;6.146;2022-07-23T14:00:17;3.17;;;2.85;;
29908;SDS011;36247;51.952;6.146;2022-07-23T14:02:42;3.35;;;3.05;;
29908;SDS011;36247;51.952;6.146;2022-07-23T14:05:09;4.47;;;3.08;;
29908;SDS011;36247;51.952;6.146;2022-07-23T14:07:36;3.55;;;2.90;;
29908;SDS011;36247;51.952;6.146;2022-07-23T14:10:02;3.95;;;2.60;;
29908;SDS011;36247;51.952;6.146;2022-07-23T14:12:29;4.28;;;2.40;;
29908;SDS011;36247;51.952;6.146;2022-07-23T14:14:55;3.05;;;2.72;;
29908;SDS011;36247;51.952;6.146;2022-07-23T14:17:20;3.42;;;3.05;;
29908;SDS011;36247;51.952;6.146;2022-07-23T14:19:46;4.30;;;2.88;;
29908;SDS011;36247;51.952;6.146;2022-07-23T14:22:11;6.43;;;2.80;;
29908;SDS011;36247;51.952;6.146;2022-07-23T14:24:37;5.15;;;3.17;;
29908;SDS011;36247;51.952;6.146;2022-07-23T14:27:03;4.13;;;3.17;;
29908;SDS011;36247;51.952;6.146;2022-07-23T14:29:29;3.90;;;3.15;;
29908;SDS011;36247;51.952;6.146;2022-07-23T14:31:55;4.22;;;3.08;;
29908;SDS011;36247;51.952;6.146;2022-07-23T14:34:21;3.72;;;2.90;;
29908;SDS011;36247;51.952;6.146;2022-07-23T14:36:47;5.35;;;3.30;;
29908;SDS011;36247;51.952;6.146;2022-07-23T14:39:12;4.18;;;2.95;;
29908;SDS011;36247;51.952;6.146;2022-07-23T14:41:39;4.25;;;3.00;;
29908;SDS011;36247;51.952;6.146;2022-07-23T14:44:04;4.00;;;3.17;;
29908;SDS011;36247;51.952;6.146;2022-07-23T14:46:30;4.32;;;3.10;;
29908;SDS011;36247;51.952;6.146;2022-07-23T14:48:56;4.55;;;3.35;;
29908;SDS011;36247;51.952;6.146;2022-07-23T14:51:21;7.05;;;3.30;;
29908;SDS011;36247;51.952;6.146;2022-07-23T14:53:47;6.10;;;3.30;;
29908;SDS011;36247;51.952;6.146;2022-07-23T14:56:13;3.90;;;3.60;;
29908;SDS011;36247;51.952;6.146;2022-07-23T14:58:39;4.57;;;3.22;;
29908;SDS011;36247;51.952;6.146;2022-07-23T15:01:05;4.25;;;3.13;;
29908;SDS011;36247;51.952;6.146;2022-07-23T15:03:31;3.70;;;2.67;;
29908;SDS011;36247;51.952;6.146;2022-07-23T15:05:56;4.28;;;3.20;;
29908;SDS011;36247;51.952;6.146;2022-07-23T15:08:21;3.55;;;3.05;;
29908;SDS011;36247;51.952;6.146;2022-07-23T15:10:47;4.60;;;3.20;;
29908;SDS011;36247;51.952;6.146;2022-07-23T15:13:15;5.15;;;3.25;;
29908;SDS011;36247;51.952;6.146;2022-07-23T15:15:41;3.05;;;2.67;;
29908;SDS011;36247;51.952;6.146;2022-07-23T15:18:07;4.93;;;2.80;;
29908;SDS011;36247;51.952;6.146;2022-07-23T15:20:32;3.30;;;3.00;;
29908;SDS011;36247;51.952;6.146;2022-07-23T15:22:58;3.65;;;3.13;;
29908;SDS011;36247;51.952;6.146;2022-07-23T15:25:23;5.32;;;3.15;;
29908;SDS011;36247;51.952;6.146;2022-07-23T15:27:49;3.47;;;2.90;;
29908;SDS011;36247;51.952;6.146;2022-07-23T15:30:15;3.33;;;3.03;;
29908;SDS011;36247;51.952;6.146;2022-07-23T15:32:40;3.13;;;2.65;;
29908;SDS011;36247;51.952;6.146;2022-07-23T15:35:06;3.03;;;2.58;;
29908;SDS011;36247;51.952;6.146;2022-07-23T15:37:34;4.20;;;2.85;;
29908;SDS011;36247;51.952;6.146;2022-07-23T15:40:00;3.08;;;2.78;;
29908;SDS011;36247;51.952;6.146;2022-07-23T15:42:26;3.40;;;3.05;;